Time;durP1;ratioP1;P1;durP2;ratioP2;P2;SDS_P1;SDS_P2;PMS_P1;PMS_P2;Temp;Humidity;BMP_temperature;BMP_pressure;BME280_temperature;BME280_humidity;BME280_pressure;Samples;Min_cycle;Max_cycle;Signal;HPM_P1;HPM_P2
2022/09/29 00:00:16;;;;;;;5.95;2.22;;;;;;;11.59;77.48;97961.34;1745160;81;20997;-71
2022/09/29 00:02:43;;;;;;;3.10;1.80;;;;;;;11.61;77.49;97958.45;1759100;80;21007;-71
2022/09/29 00:05:09;;;;;;;3.35;2.55;;;;;;;11.62;77.54;97952.10;1759286;80;21470;-71
2022/09/29 00:07:37;;;;;;;4.58;2.40;;;;;;;11.62;77.57;97956.09;1757050;80;21056;-71
2022/09/29 00:10:04;;;;;;;4.25;2.20;;;;;;;11.62;77.60;97955.59;1755824;80;21227;-71
2022/09/29 00:12:31;;;;;;;4.72;2.25;;;;;;;11.63;77.60;97958.54;1759285;80;20906;-71
2022/09/29 00:14:57;;;;;;;2.55;2.27;;;;;;;11.64;77.60;97959.36;1759331;80;21494;-71
2022/09/29 00:17:25;;;;;;;4.30;2.62;;;;;;;11.62;77.63;97952.92;1757512;80;21049;-71
2022/09/29 00:19:53;;;;;;;4.58;2.40;;;;;;;11.61;77.65;97956.61;1759365;80;21571;-71
2022/09/29 00:22:19;;;;;;;3.35;2.15;;;;;;;11.60;77.70;97952.84;1757970;80;21193;-70
2022/09/29 00:24:46;;;;;;;4.67;2.20;;;;;;;11.60;77.71;97948.84;1759246;80;20974;-71
2022/09/29 00:27:17;;;;;;;5.75;2.40;;;;;;;11.59;77.77;97948.02;1756609;80;21006;-71
2022/09/29 00:29:44;;;;;;;2.85;2.08;;;;;;;11.59;77.80;97948.02;1758380;80;21535;-71
2022/09/29 00:32:10;;;;;;;4.37;2.12;;;;;;;11.58;77.84;97949.55;1759017;80;20892;-71
2022/09/29 00:34:37;;;;;;;3.65;2.22;;;;;;;11.59;77.87;97949.35;1755587;80;21134;-71
2022/09/29 00:37:03;;;;;;;9.80;2.62;;;;;;;11.58;77.94;97939.72;1757714;80;21375;-71
2022/09/29 00:39:30;;;;;;;7.28;2.65;;;;;;;11.59;78.02;97943.20;1757747;80;20929;-70
2022/09/29 00:41:56;;;;;;;4.22;2.92;;;;;;;11.60;78.08;97941.64;1749234;80;20944;-70
2022/09/29 00:44:52;;;;;;;2.92;2.35;;;;;;;11.63;78.10;97941.73;1758937;80;21499;-70
2022/09/29 00:47:18;;;;;;;3.33;2.22;;;;;;;11.65;78.11;97941.81;1756502;80;21741;-70
2022/09/29 00:49:56;;;;;;;3.70;2.45;;;;;;;11.66;78.12;97947.97;1758038;80;21010;-70
2022/09/29 00:52:33;;;;;;;3.02;2.50;;;;;;;11.67;78.14;97946.95;1756149;80;20956;-70
2022/09/29 00:55:25;;;;;;;4.40;2.25;;;;;;;11.68;78.10;97947.23;1759224;80;20943;-70
2022/09/29 00:58:08;;;;;;;4.78;2.92;;;;;;;11.69;78.08;97950.23;1758635;80;21374;-70
2022/09/29 01:00:35;;;;;;;4.72;2.72;;;;;;;11.70;78.09;97949.22;1753759;80;21163;-70
2022/09/29 01:03:08;;;;;;;5.75;2.55;;;;;;;11.71;78.04;97950.84;1746866;80;20949;-70
2022/09/29 01:05:41;;;;;;;5.33;2.42;;;;;;;11.70;77.97;97949.22;1708117;81;21552;-70
2022/09/29 01:08:29;;;;;;;4.22;3.12;;;;;;;11.72;77.82;97949.82;1719896;81;21345;-70
2022/09/29 01:10:56;;;;;;;2.87;2.55;;;;;;;11.69;77.73;97949.73;1715253;81;20902;-70
2022/09/29 01:13:23;;;;;;;4.78;2.40;;;;;;;11.68;77.65;97944.56;1722111;81;21690;-70
2022/09/29 01:15:50;;;;;;;7.53;2.40;;;;;;;11.67;77.65;97948.28;1714332;81;21002;-70
2022/09/29 01:18:16;;;;;;;4.97;2.70;;;;;;;11.66;77.60;97950.13;1721496;81;20994;-70
2022/09/29 01:21:14;;;;;;;3.58;2.80;;;;;;;11.66;77.56;97942.13;1722338;81;20951;-70
2022/09/29 01:24:28;;;;;;;7.30;2.92;;;;;;;11.66;77.56;97943.97;1733995;81;20943;-71
2022/09/29 01:27:05;;;;;;;2.80;2.58;;;;;;;11.66;77.56;97937.31;1720539;81;21135;-71
2022/09/29 01:29:51;;;;;;;3.20;2.80;;;;;;;11.63;77.64;97939.07;1731364;81;20851;-71
2022/09/29 01:33:17;;;;;;;3.52;2.77;;;;;;;11.65;77.68;97945.02;1765484;80;20962;-72
2022/09/29 01:36:16;;;;;;;3.30;2.60;;;;;;;11.66;77.71;97953.30;1747155;80;21046;-71
2022/09/29 01:39:10;;;;;;;4.92;2.77;;;;;;;11.67;77.73;97962.42;1713761;83;20936;-71
2022/09/29 01:41:56;;;;;;;4.25;3.30;;;;;;;11.69;77.74;97955.06;1737925;81;21102;-71
2022/09/29 01:44:38;;;;;;;;;;;;;;;11.70;77.71;97950.05;1718471;81;20973;-70
2022/09/29 01:47:15;;;;;;;3.90;2.87;;;;;;;11.71;77.69;97956.98;1722288;81;20223;-71
2022/09/29 01:49:50;;;;;;;3.87;2.60;;;;;;;11.73;77.59;97953.59;1726229;81;20981;-71
2022/09/29 01:52:19;;;;;;;4.78;2.62;;;;;;;11.74;77.60;97959.23;1770518;80;20955;-71
2022/09/29 01:55:18;;;;;;;5.47;3.10;;;;;;;11.76;77.58;97957.67;1745307;81;21150;-71
2022/09/29 01:58:08;;;;;;;4.22;2.52;;;;;;;11.78;77.56;97956.97;1753486;81;20958;-71
2022/09/29 02:00:42;;;;;;;3.08;2.45;;;;;;;11.78;77.52;97952.43;1720988;82;21115;-71
2022/09/29 02:03:18;;;;;;;3.40;2.52;;;;;;;11.80;77.54;97949.56;1729439;80;21429;-71
2022/09/29 02:05:51;;;;;;;4.15;2.45;;;;;;;11.83;77.49;97945.66;1714075;81;22296;-71
2022/09/29 02:08:32;;;;;;;3.30;2.33;;;;;;;11.85;77.45;97949.73;1735201;81;21546;-71
2022/09/29 02:11:05;;;;;;;2.98;2.37;;;;;;;11.88;77.40;97948.49;1739165;81;21479;-71
2022/09/29 02:13:42;;;;;;;2.60;2.40;;;;;;;11.91;77.37;97945.41;1741059;81;20940;-69
2022/09/29 02:16:10;;;;;;;4.20;2.33;;;;;;;11.94;77.34;97947.64;1727437;81;20910;-72
2022/09/29 02:18:53;;;;;;;6.55;2.80;;;;;;;11.98;77.28;97950.16;1736990;81;20992;-72
2022/09/29 02:21:20;;;;;;;2.67;2.17;;;;;;;12.01;77.19;97949.22;1730325;81;21293;-72
2022/09/29 02:23:47;;;;;;;2.75;2.55;;;;;;;12.05;77.12;97950.92;1735188;81;21063;-72
2022/09/29 02:26:13;;;;;;;3.00;2.75;;;;;;;12.06;77.04;97946.72;1738180;81;20967;-72
2022/09/29 02:28:41;;;;;;;4.05;2.70;;;;;;;12.05;77.03;97949.08;1722311;81;20890;-72
2022/09/29 02:31:07;;;;;;;4.33;3.37;;;;;;;12.08;76.94;97953.16;1722233;81;20982;-72
2022/09/29 02:33:35;;;;;;;3.37;2.98;;;;;;;12.09;76.81;97954.30;1735029;81;21172;-72
2022/09/29 02:36:22;;;;;;;5.87;3.42;;;;;;;12.10;76.75;97954.58;1720679;81;21436;-72
2022/09/29 02:39:26;;;;;;;3.33;2.85;;;;;;;12.11;76.72;97947.40;1714842;81;20931;-72
2022/09/29 02:42:46;;;;;;;3.42;2.65;;;;;;;12.11;76.69;97948.73;1732950;81;20866;-72
2022/09/29 02:45:42;;;;;;;3.50;2.90;;;;;;;12.13;76.66;97951.98;1756276;80;20883;-69
2022/09/29 02:48:26;;;;;;;2.80;2.60;;;;;;;12.12;76.69;97957.83;1730061;81;21114;-70
2022/09/29 02:51:23;;;;;;;2.92;2.70;;;;;;;12.13;76.65;97955.48;1759219;81;20986;-71
2022/09/29 02:54:35;;;;;;;4.75;2.85;;;;;;;12.15;76.61;97958.73;1771543;80;20978;-71
2022/09/29 02:57:19;;;;;;;4.37;2.52;;;;;;;12.15;76.61;97946.74;1738413;81;21046;-71
2022/09/29 03:00:09;;;;;;;3.33;2.75;;;;;;;12.15;76.60;97950.73;1769689;80;20934;-71
2022/09/29 03:02:38;;;;;;;3.05;2.47;;;;;;;12.17;76.57;97946.55;1707855;82;21172;-71
2022/09/29 03:05:06;;;;;;;2.85;2.58;;;;;;;12.17;76.58;97951.88;1735756;81;20968;-71
2022/09/29 03:07:35;;;;;;;2.75;2.45;;;;;;;12.19;76.54;97949.29;1753627;80;20859;-71
2022/09/29 03:10:01;;;;;;;2.45;2.25;;;;;;;12.23;76.46;97956.31;1767298;80;21038;-71
2022/09/29 03:12:29;;;;;;;2.65;2.45;;;;;;;12.22;76.41;97956.86;1727436;81;20985;-71
2022/09/29 03:14:56;;;;;;;2.92;2.60;;;;;;;12.23;76.43;97951.81;1738027;81;21209;-71
2022/09/29 03:17:23;;;;;;;2.42;2.12;;;;;;;12.25;76.35;97952.41;1754679;80;20947;-71
2022/09/29 03:19:49;;;;;;;2.92;2.65;;;;;;;12.26;76.35;97957.22;1771424;80;20931;-71
2022/09/29 03:22:17;;;;;;;2.62;2.08;;;;;;;12.27;76.33;97950.87;1769203;80;21069;-71
2022/09/29 03:24:45;;;;;;;2.50;2.30;;;;;;;12.27;76.32;97946.88;1773923;80;21062;-71
2022/09/29 03:27:11;;;;;;;2.52;2.20;;;;;;;12.27;76.28;97954.36;1735579;81;21200;-71
2022/09/29 03:29:39;;;;;;;3.33;2.75;;;;;;;12.28;76.27;97944.48;1727056;81;21499;-71
2022/09/29 03:32:05;;;;;;;4.75;2.58;;;;;;;12.28;76.29;97945.30;1707726;82;21003;-71
2022/09/29 03:34:32;;;;;;;3.35;2.62;;;;;;;12.24;76.32;97941.45;1756539;80;21444;-71
2022/09/29 03:36:59;;;;;;;4.58;2.40;;;;;;;12.22;76.39;97934.20;1740620;81;20997;-71
2022/09/29 03:39:26;;;;;;;2.52;2.25;;;;;;;12.21;76.39;97945.06;1739944;81;21504;-71
2022/09/29 03:41:52;;;;;;;5.35;2.42;;;;;;;12.18;76.45;97940.98;1736417;81;20977;-71
2022/09/29 03:44:18;;;;;;;2.95;2.17;;;;;;;12.16;76.51;97936.90;1739992;81;21003;-71
2022/09/29 03:46:46;;;;;;;2.83;2.30;;;;;;;12.14;76.56;97933.13;1749401;80;20985;-71
2022/09/29 03:49:14;;;;;;;3.58;2.47;;;;;;;12.13;76.55;97940.00;1757041;80;21456;-71
2022/09/29 03:51:41;;;;;;;3.20;2.60;;;;;;;12.10;76.58;97942.58;1712423;81;21159;-71
2022/09/29 03:54:09;;;;;;;3.83;2.67;;;;;;;12.08;76.66;97937.98;1735854;81;20982;-71
2022/09/29 03:56:37;;;;;;;4.90;2.40;;;;;;;12.04;76.71;97938.64;1735396;80;20987;-71
2022/09/29 03:59:07;;;;;;;3.42;2.00;;;;;;;12.03;76.78;97927.67;1743047;81;21019;-70
2022/09/29 04:01:34;;;;;;;2.45;1.98;;;;;;;12.00;76.82;97934.77;1721869;81;20904;-71
2022/09/29 04:04:00;;;;;;;2.40;1.95;;;;;;;11.96;76.94;97928.25;1720175;81;21291;-71
2022/09/29 04:06:27;;;;;;;3.22;2.22;;;;;;;11.95;76.99;97924.77;1720576;81;21007;-70
2022/09/29 04:08:53;;;;;;;3.27;2.33;;;;;;;11.96;76.94;97925.58;1723528;81;21014;-70
2022/09/29 04:11:20;;;;;;;3.42;2.08;;;;;;;11.95;76.89;97933.27;1737002;81;21035;-70
2022/09/29 04:13:47;;;;;;;2.15;1.95;;;;;;;11.93;76.90;97928.67;1721390;81;21037;-70
2022/09/29 04:16:13;;;;;;;4.95;1.90;;;;;;;11.91;76.80;97934.74;1725282;81;21699;-70
2022/09/29 04:18:40;;;;;;;3.77;2.05;;;;;;;11.89;76.70;97928.28;1721065;81;20968;-70
2022/09/29 04:21:07;;;;;;;2.52;2.20;;;;;;;11.89;76.60;97928.28;1720825;81;20947;-70
2022/09/29 04:23:33;;;;;;;2.27;1.90;;;;;;;11.91;76.52;97928.08;1721002;81;20916;-70
2022/09/29 04:26:02;;;;;;;2.22;1.85;;;;;;;11.93;76.45;97926.83;1744715;81;20967;-70
2022/09/29 04:28:33;;;;;;;1.98;1.87;;;;;;;11.96;76.39;97929.58;1742770;81;21481;-72
2022/09/29 04:31:00;;;;;;;1.85;1.57;;;;;;;12.00;76.30;97922.77;1740279;80;20970;-70
2022/09/29 04:33:28;;;;;;;4.50;2.00;;;;;;;12.04;76.19;97932.80;1736222;81;20962;-69
2022/09/29 04:35:56;;;;;;;3.55;2.20;;;;;;;12.08;76.05;97934.50;1722065;81;21341;-71
2022/09/29 04:38:23;;;;;;;3.55;2.87;;;;;;;12.09;76.00;97943.63;1722016;81;20916;-72
2022/09/29 04:40:49;;;;;;;4.35;2.72;;;;;;;12.15;76.01;97940.63;1721422;81;21161;-70
2022/09/29 04:43:17;;;;;;;4.50;2.27;;;;;;;12.23;76.18;97937.14;1722256;81;21668;-70
2022/09/29 04:45:43;;;;;;;2.85;2.00;;;;;;;12.34;76.28;97935.11;1721043;81;20950;-70
2022/09/29 04:48:11;;;;;;;4.03;2.35;;;;;;;12.45;76.27;97940.25;1721851;81;21469;-70
2022/09/29 04:50:38;;;;;;;11.60;2.85;;;;;;;12.57;76.30;97946.48;1721125;81;20946;-70
2022/09/29 04:53:06;;;;;;;4.45;2.35;;;;;;;12.68;76.14;97939.61;1699532;82;21146;-70
2022/09/29 04:55:37;;;;;;;3.12;2.10;;;;;;;12.78;76.05;97930.58;1730438;81;20914;-71
2022/09/29 04:58:03;;;;;;;3.05;1.87;;;;;;;12.85;75.96;97929.47;1727842;81;20943;-71
2022/09/29 05:00:31;;;;;;;8.25;2.65;;;;;;;12.91;75.88;97934.44;1721676;81;21471;-71
2022/09/29 05:02:59;;;;;;;2.45;1.75;;;;;;;12.91;75.89;97934.44;1733133;81;20952;-71
2022/09/29 05:05:25;;;;;;;4.00;1.85;;;;;;;12.91;75.98;97939.78;1733959;81;21531;-71
2022/09/29 05:07:52;;;;;;;4.40;2.00;;;;;;;12.93;76.02;97933.72;1722247;81;21474;-71
2022/09/29 05:10:19;;;;;;;4.15;2.02;;;;;;;12.95;76.11;97932.47;1720786;81;20962;-71
2022/09/29 05:12:49;;;;;;;4.75;2.00;;;;;;;12.99;76.19;97934.15;1722003;81;21038;-71
2022/09/29 05:15:17;;;;;;;2.58;2.05;;;;;;;13.00;76.28;97927.78;1721826;81;21110;-70
2022/09/29 05:17:44;;;;;;;5.80;1.92;;;;;;;13.07;76.29;97920.54;1718239;81;21147;-71
2022/09/29 05:20:10;;;;;;;1.90;1.80;;;;;;;13.13;76.38;97924.99;1724412;81;20886;-71
2022/09/29 05:22:38;;;;;;;3.10;1.82;;;;;;;13.22;76.42;97921.52;1720513;81;20943;-71
2022/09/29 05:25:07;;;;;;;1.85;1.65;;;;;;;13.32;76.29;97926.59;1722499;81;20971;-71
2022/09/29 05:27:36;;;;;;;4.08;2.27;;;;;;;13.41;76.12;97921.24;1743813;81;20954;-71
2022/09/29 05:30:04;;;;;;;5.50;2.05;;;;;;;13.50;76.00;97927.09;1721947;81;21150;-72
2022/09/29 05:32:30;;;;;;;2.45;2.05;;;;;;;13.57;75.87;97933.98;1734381;81;21503;-70
2022/09/29 05:34:56;;;;;;;1.90;1.80;;;;;;;13.66;75.70;97932.33;1721450;81;20975;-71
2022/09/29 05:37:23;;;;;;;2.25;2.05;;;;;;;13.72;75.55;97938.91;1714759;81;20915;-69
2022/09/29 05:39:50;;;;;;;2.02;1.65;;;;;;;13.79;75.41;97942.84;1721924;81;21024;-71
2022/09/29 05:42:16;;;;;;;2.75;1.92;;;;;;;13.88;75.23;97950.81;1721096;81;21259;-71
2022/09/29 05:44:43;;;;;;;1.92;1.82;;;;;;;13.97;74.97;97946.78;1722106;81;20938;-70
2022/09/29 05:47:09;;;;;;;4.87;2.67;;;;;;;14.03;74.61;97956.55;1736330;81;21602;-71
2022/09/29 05:49:36;;;;;;;3.58;2.70;;;;;;;14.07;74.41;97951.87;1730573;81;20929;-71
2022/09/29 05:52:04;;;;;;;4.40;2.27;;;;;;;14.09;74.25;97948.44;1737872;81;21072;-72
2022/09/29 05:54:31;;;;;;;3.30;2.30;;;;;;;14.18;74.19;97942.24;1737747;81;21271;-73
2022/09/29 05:56:57;;;;;;;3.52;2.75;;;;;;;14.40;74.28;97944.67;1770263;80;20974;-74
2022/09/29 05:59:24;;;;;;;2.08;1.98;;;;;;;14.86;74.48;97932.35;1731563;81;20990;-72
2022/09/29 06:01:51;;;;;;;2.35;2.17;;;;;;;15.50;73.86;97939.33;1728417;81;21128;-73
2022/09/29 06:04:18;;;;;;;2.80;2.20;;;;;;;16.05;71.65;97939.03;1723435;81;21011;-74
2022/09/29 06:06:47;;;;;;;2.25;1.90;;;;;;;16.43;69.62;97942.33;1719441;83;21221;-73
2022/09/29 06:09:14;;;;;;;2.45;2.17;;;;;;;16.64;68.11;97945.64;1720396;83;21580;-72
2022/09/29 06:11:40;;;;;;;3.08;2.37;;;;;;;16.67;67.13;97949.19;1720912;83;21612;-73
2022/09/29 06:14:06;;;;;;;2.83;2.33;;;;;;;16.61;66.51;97947.47;1720422;83;21512;-73
2022/09/29 06:16:33;;;;;;;3.00;2.67;;;;;;;16.47;66.00;97950.19;1714871;81;20935;-73
2022/09/29 06:19:01;;;;;;;3.27;2.85;;;;;;;16.30;66.06;97949.36;1695981;83;20853;-74
2022/09/29 06:21:28;;;;;;;2.45;2.25;;;;;;;16.15;66.07;97954.47;1722909;81;21533;-72
2022/09/29 06:23:56;;;;;;;2.90;2.60;;;;;;;16.02;66.15;97963.64;1715527;81;20950;-75
2022/09/29 06:26:23;;;;;;;2.58;2.37;;;;;;;15.84;66.51;97960.64;1723114;81;21010;-73
2022/09/29 06:28:50;;;;;;;3.12;2.80;;;;;;;15.73;66.91;97970.89;1717697;81;20946;-73
2022/09/29 06:31:19;;;;;;;3.65;2.65;;;;;;;15.61;67.26;97966.63;1719162;81;21147;-72
2022/09/29 06:33:46;;;;;;;2.67;2.47;;;;;;;15.53;67.60;97973.18;1720607;81;21060;-70
2022/09/29 06:39:09;;;;;;;2.62;2.10;;;;;;;15.29;68.35;97972.91;1721390;81;21014;-73
2022/09/29 06:41:35;;;;;;;2.67;1.98;;;;;;;15.23;68.54;97980.55;1717292;81;21025;-71
2022/09/29 06:44:02;;;;;;;4.35;2.35;;;;;;;15.14;68.85;97984.13;1729769;81;21174;-72
2022/09/29 06:46:29;;;;;;;4.17;2.05;;;;;;;15.11;69.03;97976.56;1719825;81;21487;-74
2022/09/29 06:48:55;;;;;;;3.17;2.35;;;;;;;15.08;69.30;97978.36;1724242;82;20928;-72
2022/09/29 06:51:23;;;;;;;2.65;2.40;;;;;;;15.02;69.65;97982.48;1726250;81;20946;-69
2022/09/29 06:53:49;;;;;;;2.70;2.27;;;;;;;14.99;69.84;97969.59;1717361;81;21014;-68
2022/09/29 06:56:17;;;;;;;2.45;2.17;;;;;;;14.99;70.02;97974.95;1720037;81;21333;-70
2022/09/29 06:58:46;;;;;;;2.95;2.65;;;;;;;15.04;70.17;97991.13;1720315;83;20912;-70
2022/09/29 07:01:15;;;;;;;3.65;2.45;;;;;;;15.20;70.02;97987.73;1719003;81;21464;-70
2022/09/29 07:03:41;;;;;;;2.62;2.42;;;;;;;15.32;69.64;97979.14;1720953;82;20930;-71
2022/09/29 07:06:09;;;;;;;2.80;2.52;;;;;;;15.49;69.47;97992.66;1715803;83;20936;-71
2022/09/29 07:08:37;;;;;;;2.80;2.60;;;;;;;15.67;68.78;97998.64;1744876;80;21141;-69
2022/09/29 07:11:06;;;;;;;2.72;2.52;;;;;;;15.77;68.35;98012.79;1750877;81;20947;-69
2022/09/29 07:13:33;;;;;;;2.50;2.30;;;;;;;15.73;68.18;98004.92;1751120;81;21448;-74
2022/09/29 07:16:08;;;;;;;3.15;2.62;;;;;;;15.63;68.32;97994.81;1750588;81;21055;-71
2022/09/29 07:18:36;;;;;;;3.15;2.67;;;;;;;15.61;68.60;97998.79;1748264;80;20939;-72
2022/09/29 07:21:04;;;;;;;4.12;3.00;;;;;;;15.59;68.71;97994.20;1750936;82;21234;-70
2022/09/29 07:23:31;;;;;;;4.22;3.33;;;;;;;15.58;68.89;97996.06;1751007;81;20944;-71
2022/09/29 07:25:58;;;;;;;3.25;3.00;;;;;;;15.54;69.04;97998.91;1751145;80;21495;-71
2022/09/29 07:28:26;;;;;;;3.05;2.72;;;;;;;15.51;69.18;97999.93;1749281;81;20872;-70
2022/09/29 07:31:05;;;;;;;2.98;2.67;;;;;;;15.46;69.38;98003.84;1739618;80;20899;-72
2022/09/29 07:33:32;;;;;;;3.10;2.83;;;;;;;15.43;69.58;98001.08;1746872;80;21202;-68
2022/09/29 07:35:59;;;;;;;2.77;2.58;;;;;;;15.41;69.69;98008.00;1735927;80;21503;-69
2022/09/29 07:38:29;;;;;;;2.80;2.60;;;;;;;15.44;69.75;98015.58;1743002;80;21046;-73
2022/09/29 07:41:02;;;;;;;2.98;2.77;;;;;;;15.49;69.69;98011.42;1740517;80;20978;-72
2022/09/29 07:43:29;;;;;;;3.10;2.80;;;;;;;15.51;69.63;98017.35;1748334;80;21070;-72
2022/09/29 07:45:56;;;;;;;4.42;2.75;;;;;;;15.51;69.79;98018.69;1739980;80;21150;-71
2022/09/29 07:48:22;;;;;;;3.30;3.00;;;;;;;15.54;69.71;98019.02;1746914;80;20911;-72
2022/09/29 07:50:49;;;;;;;7.15;6.25;;;;;;;15.58;69.54;98012.14;1742775;80;21061;-70
2022/09/29 07:53:15;;;;;;;4.70;4.12;;;;;;;15.62;69.57;98015.14;1734635;80;20906;-72
2022/09/29 07:55:42;;;;;;;4.67;3.52;;;;;;;15.67;69.58;98017.95;1744909;81;21446;-73
2022/09/29 07:58:09;;;;;;;3.55;3.10;;;;;;;15.68;69.53;98016.36;1732151;81;21251;-72
2022/09/29 08:00:36;;;;;;;8.13;4.08;;;;;;;15.65;69.53;98012.81;1730311;81;20993;-70
2022/09/29 08:03:06;;;;;;;4.03;3.10;;;;;;;15.61;69.67;98006.31;1737848;80;20931;-71
2022/09/29 08:05:33;;;;;;;4.28;3.27;;;;;;;15.62;69.84;98006.58;1738858;81;21057;-74
2022/09/29 08:08:01;;;;;;;3.52;3.17;;;;;;;15.65;69.95;98003.43;1724308;82;20958;-71
2022/09/29 08:10:32;;;;;;;3.25;3.00;;;;;;;15.68;69.95;98011.00;1722820;82;21851;-71
2022/09/29 08:12:58;;;;;;;4.33;3.37;;;;;;;15.75;70.08;98008.98;1722850;82;20974;-71
2022/09/29 08:15:26;;;;;;;3.22;3.00;;;;;;;15.81;70.17;98004.02;1725675;82;21081;-71
2022/09/29 08:17:54;;;;;;;4.55;2.92;;;;;;;15.88;70.29;98011.39;1723017;81;21065;-71
2022/09/29 08:20:22;;;;;;;4.22;2.80;;;;;;;15.94;70.13;98009.10;1726789;82;21030;-71
2022/09/29 08:22:49;;;;;;;3.40;3.10;;;;;;;16.03;69.94;98012.22;1722699;82;21753;-71
2022/09/29 08:25:16;;;;;;;3.75;2.65;;;;;;;16.14;69.73;98001.94;1721113;82;20954;-70
2022/09/29 08:27:44;;;;;;;3.08;2.77;;;;;;;16.26;69.48;97999.21;1718482;82;21416;-70
2022/09/29 08:30:12;;;;;;;3.62;2.95;;;;;;;16.41;69.13;98008.34;1733728;82;20958;-70
2022/09/29 08:32:38;;;;;;;2.45;2.25;;;;;;;16.55;68.63;98007.53;1721928;82;21005;-69
2022/09/29 08:35:06;;;;;;;4.10;2.70;;;;;;;16.66;68.42;98002.59;1723300;82;21463;-70
2022/09/29 08:37:33;;;;;;;3.00;2.40;;;;;;;16.77;68.05;98008.41;1726676;82;21527;-70
2022/09/29 08:40:00;;;;;;;4.53;2.33;;;;;;;16.88;67.64;98011.55;1735513;82;20989;-70
2022/09/29 08:42:59;;;;;;;2.50;2.30;;;;;;;16.98;67.41;98007.66;1728491;82;21033;-71
2022/09/29 08:45:34;;;;;;;2.42;2.22;;;;;;;17.10;67.14;98009.71;1703653;82;20973;-71
2022/09/29 08:48:07;;;;;;;3.00;2.45;;;;;;;17.22;66.80;98009.09;1720480;82;21250;-69
2022/09/29 08:50:46;;;;;;;2.85;2.65;;;;;;;17.41;66.23;98010.14;1720498;82;20933;-69
2022/09/29 08:53:15;;;;;;;2.45;2.27;;;;;;;17.55;65.75;98011.41;1703507;83;20942;-71
2022/09/29 08:55:57;;;;;;;4.42;2.70;;;;;;;17.65;65.24;98011.57;1728985;82;21488;-70
2022/09/29 08:58:23;;;;;;;2.55;2.35;;;;;;;17.78;64.80;98010.63;1736514;82;21053;-72
2022/09/29 09:01:35;;;;;;;3.80;3.02;;;;;;;18.44;64.22;98008.09;1722543;82;21248;-71
2022/09/29 09:04:16;;;;;;;2.40;2.20;;;;;;;19.26;62.26;98006.84;1721513;82;20938;-71
2022/09/29 09:06:54;;;;;;;2.72;2.52;;;;;;;20.19;59.59;98007.23;1724213;82;20995;-71
2022/09/29 09:09:45;;;;;;;2.70;2.50;;;;;;;20.63;58.23;98000.30;1720207;83;21082;-72
2022/09/29 09:12:32;;;;;;;3.00;2.70;;;;;;;20.80;57.06;98002.73;1710581;83;20950;-69
2022/09/29 09:15:19;;;;;;;3.95;2.75;;;;;;;20.87;56.62;98006.78;1716336;83;21208;-71
2022/09/29 09:18:13;;;;;;;2.72;2.52;;;;;;;20.85;55.29;98016.24;1710133;83;21046;-71
2022/09/29 09:21:09;;;;;;;2.80;2.08;;;;;;;20.68;54.98;98007.58;1720616;83;21025;-71
2022/09/29 09:23:43;;;;;;;;;;;;;;;20.50;55.32;98008.94;1718289;83;20978;-71
2022/09/29 09:26:09;;;;;;;2.83;2.62;;;;;;;20.26;55.34;98010.52;1706508;83;20438;-70
2022/09/29 09:28:58;;;;;;;2.72;2.52;;;;;;;20.01;55.54;98011.25;1712548;83;21309;-70
2022/09/29 09:31:59;;;;;;;3.50;2.60;;;;;;;19.72;56.20;98003.32;1706417;83;21006;-72
2022/09/29 09:34:55;;;;;;;3.00;2.75;;;;;;;19.53;57.02;97998.10;1609826;87;21625;-71
2022/09/29 09:37:27;;;;;;;5.25;2.90;;;;;;;19.53;57.14;98002.15;1609947;87;21085;-71
2022/09/29 09:40:13;;;;;;;4.03;3.20;;;;;;;19.55;57.09;98004.07;1687660;83;21043;-72
2022/09/29 09:42:45;;;;;;;5.50;3.25;;;;;;;19.62;57.41;98000.59;1726426;82;21242;-71
2022/09/29 09:45:31;;;;;;;3.17;2.60;;;;;;;19.77;57.35;97999.29;1717191;82;21000;-71
2022/09/29 09:48:20;;;;;;;3.65;3.10;;;;;;;19.86;56.98;98000.95;1710597;82;20981;-73
2022/09/29 09:50:48;;;;;;;4.28;2.42;;;;;;;19.87;56.96;97990.41;1708508;83;21042;-72
2022/09/29 09:53:26;;;;;;;3.15;2.70;;;;;;;19.91;57.13;97987.47;1704623;82;20925;-71
2022/09/29 09:56:19;;;;;;;2.50;2.30;;;;;;;20.01;56.94;97988.31;1708897;82;21231;-73
2022/09/29 09:59:14;;;;;;;2.50;2.30;;;;;;;20.15;56.88;97998.06;1701551;82;21008;-73
2022/09/29 10:01:41;;;;;;;2.67;2.47;;;;;;;20.20;56.86;97998.89;1698881;82;21019;-71
2022/09/29 10:04:13;;;;;;;2.37;2.17;;;;;;;20.23;56.86;97997.54;1700822;82;21108;-71
2022/09/29 10:06:40;;;;;;;2.70;2.50;;;;;;;20.23;56.95;97996.19;1677862;82;21527;-70
2022/09/29 10:09:13;;;;;;;2.35;2.15;;;;;;;20.26;56.96;97988.91;1722215;81;21078;-72
2022/09/29 10:11:40;;;;;;;2.55;2.35;;;;;;;20.28;56.71;97990.27;1722309;81;21024;-72
2022/09/29 10:14:24;;;;;;;3.08;1.92;;;;;;;20.28;56.54;97984.86;1721997;81;21003;-70
2022/09/29 10:16:59;;;;;;;2.20;2.00;;;;;;;20.18;56.37;97982.66;1730823;81;21506;-70
2022/09/29 10:20:03;;;;;;;2.33;1.82;;;;;;;20.02;56.59;97984.52;1714269;81;21161;-71
2022/09/29 10:22:30;;;;;;;2.00;1.90;;;;;;;19.95;56.80;97981.27;1721768;81;21293;-71
2022/09/29 10:25:17;;;;;;;2.47;2.27;;;;;;;19.94;56.88;97978.84;1735508;81;21030;-72
2022/09/29 10:27:51;;;;;;;3.45;2.20;;;;;;;19.96;56.51;97978.03;1721704;81;20938;-71
2022/09/29 10:30:27;;;;;;;1.92;1.82;;;;;;;20.00;56.23;97973.71;1721866;81;20975;-70
2022/09/29 10:32:57;;;;;;;;;;;;;;;20.11;55.84;97982.11;1747642;81;20930;-71
2022/09/29 10:35:29;;;;;;;2.58;2.37;;;;;;;20.26;55.66;97984.33;1734255;81;21133;-72
2022/09/29 10:38:10;;;;;;;2.20;2.00;;;;;;;20.50;55.12;97982.45;1725477;81;21091;-71
2022/09/29 10:40:38;;;;;;;2.20;1.72;;;;;;;20.78;54.85;97974.61;1729461;81;21034;-71
2022/09/29 10:43:23;;;;;;;2.00;1.90;;;;;;;21.09;54.24;97958.39;1670317;83;20963;-71
2022/09/29 10:45:50;;;;;;;2.52;1.45;;;;;;;21.34;53.43;97961.02;1708550;81;20998;-71
2022/09/29 10:48:17;;;;;;;1.82;1.72;;;;;;;21.52;52.55;97948.23;1723648;81;21168;-71
2022/09/29 10:50:53;;;;;;;3.42;1.50;;;;;;;21.69;52.28;97951.39;1733678;81;20912;-72
2022/09/29 10:53:31;;;;;;;4.17;1.60;;;;;;;21.86;52.19;97954.59;1713553;81;21070;-73
2022/09/29 10:56:00;;;;;;;3.10;1.85;;;;;;;22.34;51.34;97969.73;1727423;81;21066;-72
2022/09/29 10:58:39;;;;;;;1.82;1.72;;;;;;;22.34;51.34;97969.73;1739561;81;21031;-70
2022/09/29 11:01:12;;;;;;;1.60;1.50;;;;;;;22.48;50.13;97972.87;1727859;81;21832;-72
2022/09/29 11:03:50;;;;;;;2.42;1.40;;;;;;;22.53;49.07;97975.53;1743277;81;20955;-72
2022/09/29 11:06:16;;;;;;;1.90;1.30;;;;;;;22.53;47.99;97977.43;1743557;80;21037;-71
2022/09/29 11:09:06;;;;;;;1.45;1.22;;;;;;;22.49;46.46;97984.52;1725935;81;20910;-71
2022/09/29 11:11:36;;;;;;;1.57;1.47;;;;;;;22.42;46.32;97973.98;1756362;81;20937;-72
2022/09/29 11:14:04;;;;;;;3.95;1.67;;;;;;;22.40;46.32;97974.01;1747018;81;21053;-72
2022/09/29 11:16:36;;;;;;;1.70;1.50;;;;;;;22.28;46.53;97975.73;1727764;81;20982;-71
2022/09/29 11:19:08;;;;;;;1.42;1.32;;;;;;;22.22;46.81;97971.97;1733618;81;20934;-70
2022/09/29 11:21:56;;;;;;;2.37;1.47;;;;;;;22.17;47.23;97970.11;1736196;81;20939;-72
2022/09/29 11:25:21;;;;;;;2.87;1.30;;;;;;;22.12;47.55;97970.95;1745329;80;20922;-71
2022/09/29 11:28:31;;;;;;;2.15;1.45;;;;;;;22.09;47.12;97975.58;1748121;81;21559;-72
2022/09/29 11:31:35;;;;;;;5.37;1.55;;;;;;;22.03;46.82;97963.72;1744888;81;20990;-71
2022/09/29 11:34:32;;;;;;;1.60;1.50;;;;;;;21.98;47.05;97959.12;1767257;80;20954;-71
2022/09/29 11:37:31;;;;;;;2.45;1.70;;;;;;;22.02;47.23;97963.44;1721077;81;20923;-72
2022/09/29 11:40:18;;;;;;;2.62;1.60;;;;;;;22.10;47.20;97961.50;1730874;82;21036;-72
2022/09/29 11:43:08;;;;;;;2.00;1.77;;;;;;;22.14;47.58;97959.30;1722427;82;21552;-72
2022/09/29 11:45:47;;;;;;;2.08;1.57;;;;;;;22.16;47.71;97950.09;1716955;82;21013;-72
2022/09/29 11:48:34;;;;;;;3.45;1.50;;;;;;;22.13;47.69;97957.66;1732828;82;20947;-72
2022/09/29 11:51:06;;;;;;;1.98;1.60;;;;;;;22.11;47.71;97956.33;1664548;82;21085;-72
2022/09/29 11:54:06;;;;;;;2.45;1.35;;;;;;;22.13;47.67;97954.95;1719914;82;20939;-73
2022/09/29 11:56:54;;;;;;;1.77;1.22;;;;;;;22.18;47.77;97949.26;1762357;80;21707;-72
2022/09/29 11:59:46;;;;;;;3.20;1.60;;;;;;;22.31;47.70;97947.27;1720848;82;20900;-72
2022/09/29 12:02:50;;;;;;;2.55;1.70;;;;;;;22.38;47.59;97944.50;1723846;81;20961;-72
2022/09/29 12:05:55;;;;;;;2.05;1.30;;;;;;;22.48;46.98;97946.31;1727198;81;21623;-72
2022/09/29 12:08:36;;;;;;;1.75;1.50;;;;;;;22.54;46.65;97946.55;1727313;81;21031;-72